Astor, Florida
Current Conditions -  °F | °C
As of 5:35 PM on Tuesday 27 Jan 2015 (Local Time) from KDED Reporting Station
Clear Clear  
Wind Chill: 17°   Ceiling: Unl
Heat Index: 17°   Visibility: 10mi
Dew Point:   Wind: 9mph
Humidity: 48%   Direction: 260°W
Pressure: 29.92"   Gusts: NA
Location:  29.15°N, 81.53°W
Report Text: KDED 272235Z AUTO 26008KT 10SM CLR 17/06 A2992 RMK AO1
Loading
Personal Weather Stations






























Interactive Weather Map New forecast layout! Learn more

10-Day Weather Forecast

Advertisements
Track Severe Weather on mobile